createdAt,value
2023-04-26T00:00:09.156Z,1008.73
2023-04-26T00:01:09.062Z,1008.72
2023-04-26T00:02:09.058Z,1008.77
2023-04-26T00:03:09.153Z,1008.68
2023-04-26T00:04:09.373Z,1008.77
2023-04-26T00:05:09.506Z,1008.77
2023-04-26T00:06:09.018Z,1008.70
2023-04-26T00:07:09.028Z,1008.73
2023-04-26T00:08:09.005Z,1008.73
2023-04-26T00:09:08.995Z,1008.75
2023-04-26T00:10:08.967Z,1008.76
2023-04-26T00:11:08.947Z,1008.69
2023-04-26T00:12:08.942Z,1008.72
2023-04-26T00:13:08.941Z,1008.76
2023-04-26T00:14:08.956Z,1008.69
2023-04-26T00:15:08.915Z,1008.73
2023-04-26T00:16:08.981Z,1008.68
2023-04-26T00:17:08.883Z,1008.75
2023-04-26T00:18:08.915Z,1008.75
2023-04-26T00:19:08.908Z,1008.73
2023-04-26T00:20:08.878Z,1008.76
2023-04-26T00:21:08.861Z,1008.75
2023-04-26T00:22:08.838Z,1008.72
2023-04-26T00:23:08.822Z,1008.73
2023-04-26T00:24:08.855Z,1008.73
2023-04-26T00:25:08.830Z,1008.74
2023-04-26T00:26:08.787Z,1008.73
2023-04-26T00:27:08.783Z,1008.69
2023-04-26T00:28:08.781Z,1008.70
2023-04-26T00:29:08.789Z,1008.75
2023-04-26T00:30:08.751Z,1008.73
2023-04-26T00:31:08.749Z,1008.76
2023-04-26T00:32:08.793Z,1008.75
2023-04-26T00:33:08.955Z,1008.71
2023-04-26T00:34:08.739Z,1008.77
2023-04-26T00:35:08.739Z,1008.73
2023-04-26T00:36:08.698Z,1008.77
2023-04-26T00:37:08.678Z,1008.72
2023-04-26T00:38:08.666Z,1008.72
2023-04-26T00:39:08.672Z,1008.76
2023-04-26T00:40:08.733Z,1008.75
2023-04-26T00:41:08.641Z,1008.72
2023-04-26T00:42:08.630Z,1008.72
2023-04-26T00:43:08.622Z,1008.71
2023-04-26T00:44:08.693Z,1008.73
2023-04-26T00:45:08.590Z,1008.76
2023-04-26T00:46:08.673Z,1008.71
2023-04-26T00:47:08.582Z,1008.73
2023-04-26T00:48:08.686Z,1008.72
2023-04-26T00:49:08.608Z,1008.68
2023-04-26T00:50:08.568Z,1008.71
2023-04-26T00:51:08.552Z,1008.68
2023-04-26T00:52:08.518Z,1008.73
2023-04-26T00:53:08.513Z,1008.74
2023-04-26T00:54:08.515Z,1008.71
2023-04-26T00:55:08.497Z,1008.73
2023-04-26T00:56:08.571Z,1008.74
2023-04-26T00:57:08.462Z,1008.73
2023-04-26T00:58:08.453Z,1008.67
2023-04-26T00:59:08.462Z,1008.76
2023-04-26T01:00:08.436Z,1008.76
2023-04-26T01:01:08.456Z,1008.77
2023-04-26T01:02:08.505Z,1008.76
2023-04-26T01:03:08.671Z,1008.75
2023-04-26T01:04:08.635Z,1008.76
2023-04-26T01:05:08.376Z,1008.72
2023-04-26T01:06:08.363Z,1008.77
2023-04-26T01:07:08.351Z,1008.76
2023-04-26T01:08:08.352Z,1008.77
2023-04-26T01:09:08.354Z,1008.72
2023-04-26T01:10:08.325Z,1008.74
2023-04-26T01:11:08.323Z,1008.76
2023-04-26T01:12:08.341Z,1008.73
2023-04-26T01:13:08.301Z,1008.78
2023-04-26T01:14:08.312Z,1008.76
2023-04-26T01:15:08.270Z,1008.73
2023-04-26T01:16:08.261Z,1008.72
2023-04-26T01:17:08.459Z,1008.76
2023-04-26T01:18:08.239Z,1008.79
2023-04-26T01:19:08.265Z,1008.81
2023-04-26T01:20:08.223Z,1008.76
2023-04-26T01:21:08.237Z,1008.86
2023-04-26T01:22:08.209Z,1008.83
2023-04-26T01:23:08.184Z,1008.88
2023-04-26T01:24:08.189Z,1008.83
2023-04-26T01:25:08.197Z,1008.83
2023-04-26T01:26:08.161Z,1008.90
2023-04-26T01:27:08.171Z,1008.91
2023-04-26T01:28:08.181Z,1008.92
2023-04-26T01:29:08.134Z,1008.93
2023-04-26T01:30:08.113Z,1008.95
2023-04-26T01:31:08.122Z,1008.94
2023-04-26T01:32:08.089Z,1008.94
2023-04-26T01:33:08.100Z,1008.97
2023-04-26T01:34:08.120Z,1008.94
2023-04-26T01:35:08.057Z,1008.99
2023-04-26T01:36:08.041Z,1008.94
2023-04-26T01:37:08.028Z,1009.00
2023-04-26T01:38:08.023Z,1008.97
2023-04-26T01:39:08.020Z,1008.97
2023-04-26T01:40:08.059Z,1008.97
2023-04-26T01:41:09.801Z,1009.02
2023-04-26T01:42:07.984Z,1009.03
2023-04-26T01:43:07.980Z,1009.05
2023-04-26T01:44:08.594Z,1009.02
2023-04-26T01:45:07.969Z,1009.02
2023-04-26T01:46:07.980Z,1009.02
2023-04-26T01:47:07.946Z,1009.04
2023-04-26T01:48:07.932Z,1009.01
2023-04-26T01:49:07.953Z,1009.03
2023-04-26T01:50:07.892Z,1009.07
2023-04-26T01:51:07.879Z,1008.99
2023-04-26T01:52:07.866Z,1009.02
2023-04-26T01:53:07.860Z,1008.99
2023-04-26T01:54:07.889Z,1009.02
2023-04-26T01:55:07.840Z,1009.10
2023-04-26T01:56:07.831Z,1009.04
2023-04-26T01:57:07.831Z,1009.04
2023-04-26T01:58:07.805Z,1009.06
2023-04-26T01:59:07.822Z,1009.03
2023-04-26T02:00:07.804Z,1009.06
2023-04-26T02:01:07.830Z,1009.01
2023-04-26T02:02:07.872Z,1009.04
2023-04-26T02:03:07.898Z,1009.05
2023-04-26T02:04:07.912Z,1009.03
2023-04-26T02:05:07.745Z,1009.06
2023-04-26T02:06:07.723Z,1009.02
2023-04-26T02:07:07.708Z,1008.99
2023-04-26T02:08:07.695Z,1009.04
2023-04-26T02:09:07.696Z,1009.02
2023-04-26T02:10:07.680Z,1008.99
2023-04-26T02:11:07.667Z,1009.00
2023-04-26T02:12:07.657Z,1009.01
2023-04-26T02:13:07.652Z,1009.02
2023-04-26T02:14:07.652Z,1009.03
2023-04-26T02:15:07.637Z,1008.98
2023-04-26T02:16:07.844Z,1008.98
2023-04-26T02:17:07.612Z,1009.00
2023-04-26T02:18:07.683Z,1008.99
2023-04-26T02:19:07.616Z,1009.01
2023-04-26T02:20:07.572Z,1009.00
2023-04-26T02:21:07.576Z,1009.02
2023-04-26T02:22:07.551Z,1009.10
2023-04-26T02:23:07.572Z,1009.08
2023-04-26T02:24:07.541Z,1009.08
2023-04-26T02:25:07.557Z,1008.96
2023-04-26T02:26:07.546Z,1008.99
2023-04-26T02:27:07.512Z,1009.07
2023-04-26T02:28:07.512Z,1009.05
2023-04-26T02:29:07.560Z,1009.04
2023-04-26T02:30:07.492Z,1009.03
2023-04-26T02:31:07.486Z,1009.02
2023-04-26T02:32:07.460Z,1009.03
2023-04-26T02:33:07.478Z,1009.03
2023-04-26T02:34:07.438Z,1009.05
2023-04-26T02:35:07.422Z,1009.01
2023-04-26T02:36:07.396Z,1009.03
2023-04-26T02:37:07.402Z,1009.04
2023-04-26T02:38:07.428Z,1009.06
2023-04-26T02:39:07.373Z,1008.99
2023-04-26T02:40:07.410Z,1009.00
2023-04-26T02:41:07.342Z,1009.05
2023-04-26T02:42:07.333Z,1009.04
2023-04-26T02:43:07.336Z,1009.05
2023-04-26T02:44:07.328Z,1009.02
2023-04-26T02:45:07.307Z,1009.00
2023-04-26T02:46:07.287Z,1009.00
2023-04-26T02:47:07.347Z,1008.99
2023-04-26T02:48:07.483Z,1009.00
2023-04-26T02:49:07.324Z,1008.94
2023-04-26T02:50:07.272Z,1008.96
2023-04-26T02:51:07.266Z,1009.04
2023-04-26T02:52:07.244Z,1009.00
2023-04-26T02:53:07.239Z,1008.99
2023-04-26T02:54:07.208Z,1008.99
2023-04-26T02:55:07.226Z,1009.03
2023-04-26T02:56:07.176Z,1009.00
2023-04-26T02:57:07.173Z,1009.03
2023-04-26T02:58:07.164Z,1008.99
2023-04-26T02:59:07.157Z,1009.01
2023-04-26T03:00:07.198Z,1009.02
2023-04-26T03:01:07.219Z,1009.03
2023-04-26T03:02:07.144Z,1009.02
2023-04-26T03:03:07.300Z,1008.97
2023-04-26T03:04:07.218Z,1009.04
2023-04-26T03:05:07.098Z,1009.07
2023-04-26T03:06:07.071Z,1009.04
2023-04-26T03:07:07.077Z,1009.06
2023-04-26T03:08:07.051Z,1009.04
2023-04-26T03:09:07.043Z,1009.02
2023-04-26T03:10:07.058Z,1009.01
2023-04-26T03:11:07.021Z,1009.01
2023-04-26T03:12:07.010Z,1009.02
2023-04-26T03:13:07.003Z,1009.03
2023-04-26T03:14:07.009Z,1009.04
2023-04-26T03:15:06.991Z,1009.06
2023-04-26T03:16:07.010Z,1009.05
2023-04-26T03:17:06.965Z,1009.04
2023-04-26T03:18:06.981Z,1009.04
2023-04-26T03:19:06.955Z,1009.03
2023-04-26T03:20:07.025Z,1008.96
2023-04-26T03:21:06.907Z,1009.02
2023-04-26T03:22:06.918Z,1009.00
2023-04-26T03:23:06.891Z,1009.00
2023-04-26T03:24:06.923Z,1009.00
2023-04-26T03:25:06.869Z,1008.99
2023-04-26T03:26:06.857Z,1009.03
2023-04-26T03:27:06.848Z,1009.00
2023-04-26T03:28:06.842Z,1009.02
2023-04-26T03:29:06.844Z,1009.06
2023-04-26T03:30:06.837Z,1009.04
2023-04-26T03:31:06.807Z,1009.03
2023-04-26T03:32:06.834Z,1009.09
2023-04-26T03:33:06.840Z,1009.10
2023-04-26T03:34:06.786Z,1009.07
2023-04-26T03:35:06.780Z,1009.08
2023-04-26T03:36:06.777Z,1009.14
2023-04-26T03:37:06.747Z,1009.15
2023-04-26T03:38:06.732Z,1009.16
2023-04-26T03:39:06.763Z,1009.09
2023-04-26T03:40:06.714Z,1009.20
2023-04-26T03:41:06.721Z,1009.13
2023-04-26T03:42:06.694Z,1009.15
2023-04-26T03:43:06.680Z,1009.14
2023-04-26T03:44:06.688Z,1009.22
2023-04-26T03:45:06.664Z,1009.17
2023-04-26T03:46:06.727Z,1009.18
2023-04-26T03:47:06.635Z,1009.16
2023-04-26T03:48:06.656Z,1009.19
2023-04-26T03:49:06.650Z,1009.20
2023-04-26T03:50:06.603Z,1009.19
2023-04-26T03:51:06.604Z,1009.25
2023-04-26T03:52:06.616Z,1009.27
2023-04-26T03:53:06.570Z,1009.22
2023-04-26T03:54:06.599Z,1009.25
2023-04-26T03:55:06.559Z,1009.24
2023-04-26T03:56:06.538Z,1009.20
2023-04-26T03:57:06.532Z,1009.23
2023-04-26T03:58:06.526Z,1009.24
2023-04-26T03:59:06.542Z,1009.28
2023-04-26T04:00:06.503Z,1009.28
2023-04-26T04:01:06.507Z,1009.27
2023-04-26T04:02:06.510Z,1009.28
2023-04-26T04:03:06.589Z,1009.29
2023-04-26T04:04:06.641Z,1009.33
2023-04-26T04:05:06.649Z,1009.28
2023-04-26T04:06:06.430Z,1009.30
2023-04-26T04:07:06.419Z,1009.32
2023-04-26T04:08:06.507Z,1009.31
2023-04-26T04:09:06.411Z,1009.30
2023-04-26T04:10:06.417Z,1009.28
2023-04-26T04:11:06.398Z,1009.27
2023-04-26T04:12:06.370Z,1009.29
2023-04-26T04:13:06.351Z,1009.31
2023-04-26T04:14:06.361Z,1009.32
2023-04-26T04:15:06.332Z,1009.33
2023-04-26T04:16:06.358Z,1009.33
2023-04-26T04:17:06.312Z,1009.31
2023-04-26T04:18:06.317Z,1009.37
2023-04-26T04:19:06.311Z,1009.36
2023-04-26T04:20:06.291Z,1009.30
2023-04-26T04:21:06.270Z,1009.34
2023-04-26T04:22:06.278Z,1009.32
2023-04-26T04:23:06.271Z,1009.36
2023-04-26T04:24:06.341Z,1009.38
2023-04-26T04:25:06.222Z,1009.38
2023-04-26T04:26:06.214Z,1009.34
2023-04-26T04:27:06.206Z,1009.33
2023-04-26T04:28:06.198Z,1009.33
2023-04-26T04:29:06.224Z,1009.33
2023-04-26T04:30:06.181Z,1009.39
2023-04-26T04:31:14.204Z,1009.39
2023-04-26T04:32:06.144Z,1009.30
2023-04-26T04:33:06.155Z,1009.35
2023-04-26T04:34:06.132Z,1009.37
2023-04-26T04:35:06.119Z,1009.41
2023-04-26T04:36:06.114Z,1009.41
2023-04-26T04:37:06.096Z,1009.40
2023-04-26T04:38:06.082Z,1009.40
2023-04-26T04:39:06.091Z,1009.45
2023-04-26T04:40:06.133Z,1009.43
2023-04-26T04:41:06.050Z,1009.36
2023-04-26T04:42:06.051Z,1009.40
2023-04-26T04:43:06.026Z,1009.44
2023-04-26T04:44:06.029Z,1009.43
2023-04-26T04:46:23.202Z,1009.44
2023-04-26T04:47:23.151Z,1009.44
2023-04-26T04:48:23.131Z,1009.42
2023-04-26T04:49:23.146Z,1009.50
2023-04-26T04:50:23.109Z,1009.54
2023-04-26T04:51:23.108Z,1009.48
2023-04-26T04:52:23.127Z,1009.53
2023-04-26T04:53:23.080Z,1009.52
2023-04-26T04:54:23.082Z,1009.52
2023-04-26T04:55:23.126Z,1009.53
2023-04-26T04:56:23.046Z,1009.51
2023-04-26T04:57:23.036Z,1009.58
2023-04-26T04:58:23.040Z,1009.56
2023-04-26T04:59:23.021Z,1009.58
2023-04-26T05:00:23.005Z,1009.56
2023-04-26T05:01:23.021Z,1009.55
2023-04-26T05:02:23.099Z,1009.57
2023-04-26T05:03:23.224Z,1009.62
2023-04-26T05:04:23.284Z,1009.49
2023-04-26T05:05:22.952Z,1009.56
2023-04-26T05:06:22.964Z,1009.57
2023-04-26T05:07:24.433Z,1009.59
2023-04-26T05:08:22.931Z,1009.54
2023-04-26T05:09:22.912Z,1009.62
2023-04-26T05:10:22.898Z,1009.65
2023-04-26T05:11:22.905Z,1009.66
2023-04-26T05:12:22.875Z,1009.68
2023-04-26T05:13:22.907Z,1009.67
2023-04-26T05:14:22.858Z,1009.65
2023-04-26T05:15:22.853Z,1009.70
2023-04-26T05:16:23.012Z,1009.68
2023-04-26T05:17:22.840Z,1009.68
2023-04-26T05:18:22.820Z,1009.69
2023-04-26T05:19:22.812Z,1009.70
2023-04-26T05:20:22.790Z,1009.76
2023-04-26T05:21:22.782Z,1009.71
2023-04-26T05:22:22.768Z,1009.79
2023-04-26T05:23:22.783Z,1009.72
2023-04-26T05:24:22.750Z,1009.78
2023-04-26T05:25:23.036Z,1009.76
2023-04-26T05:26:22.722Z,1009.77
2023-04-26T05:27:22.834Z,1009.80
2023-04-26T05:28:22.719Z,1009.88
2023-04-26T05:29:22.696Z,1009.87
2023-04-26T05:30:22.682Z,1009.87
2023-04-26T05:31:22.777Z,1009.86
2023-04-26T05:32:22.658Z,1009.82
2023-04-26T05:33:22.684Z,1009.88
2023-04-26T05:34:22.676Z,1009.90
2023-04-26T05:35:22.633Z,1009.92
2023-04-26T05:36:22.629Z,1009.91
2023-04-26T05:37:22.617Z,1009.86
2023-04-26T05:38:22.651Z,1009.90
2023-04-26T05:39:22.582Z,1009.90
2023-04-26T05:40:22.573Z,1009.93
2023-04-26T05:41:22.569Z,1009.90
2023-04-26T05:42:22.555Z,1009.97
2023-04-26T05:43:22.574Z,1009.97
2023-04-26T05:44:22.532Z,1009.96
2023-04-26T05:45:22.521Z,1010.01
2023-04-26T05:46:22.536Z,1009.87
2023-04-26T05:47:22.498Z,1009.95
2023-04-26T05:48:22.529Z,1009.97
2023-04-26T05:49:22.477Z,1009.97
2023-04-26T05:50:22.464Z,1009.97
2023-04-26T05:51:22.454Z,1010.00
2023-04-26T05:52:22.459Z,1009.96
2023-04-26T05:53:22.458Z,1009.97
2023-04-26T05:54:22.421Z,1010.01
2023-04-26T05:55:22.417Z,1009.98
2023-04-26T05:56:22.433Z,1010.02
2023-04-26T05:57:22.460Z,1010.02
2023-04-26T05:58:22.438Z,1009.96
2023-04-26T05:59:22.390Z,1009.97
2023-04-26T06:00:22.413Z,1010.01
2023-04-26T06:01:22.348Z,1010.04
2023-04-26T06:02:22.462Z,1010.04
2023-04-26T06:03:22.619Z,1010.04
2023-04-26T06:04:22.657Z,1010.05
2023-04-26T06:05:22.437Z,1010.01
2023-04-26T06:06:22.287Z,1010.06
2023-04-26T06:07:22.273Z,1010.05
2023-04-26T06:08:22.374Z,1010.03
2023-04-26T06:09:22.253Z,1010.06
2023-04-26T06:10:22.246Z,1010.03
2023-04-26T06:11:22.282Z,1010.06
2023-04-26T06:12:22.232Z,1010.13
2023-04-26T06:13:22.245Z,1010.11
2023-04-26T06:14:29.941Z,1010.11
2023-04-26T06:15:23.242Z,1010.11
2023-04-26T06:16:22.215Z,1010.08
2023-04-26T06:17:22.223Z,1010.15
2023-04-26T06:18:22.181Z,1010.15
2023-04-26T06:19:22.147Z,1010.14
2023-04-26T06:20:22.135Z,1010.13
2023-04-26T06:21:22.138Z,1010.08
2023-04-26T06:22:22.115Z,1010.08
2023-04-26T06:23:22.114Z,1010.14
2023-04-26T06:24:22.100Z,1010.07
2023-04-26T06:25:22.084Z,1010.09
2023-04-26T06:26:22.072Z,1010.07
2023-04-26T06:27:22.075Z,1010.10
2023-04-26T06:28:22.085Z,1010.14
2023-04-26T06:29:22.042Z,1010.13
2023-04-26T06:30:22.038Z,1010.14
2023-04-26T06:31:22.145Z,1010.15
2023-04-26T06:32:22.029Z,1010.18
2023-04-26T06:33:22.021Z,1010.13
2023-04-26T06:34:21.990Z,1010.15
2023-04-26T06:35:21.979Z,1010.15
2023-04-26T06:36:21.967Z,1010.21
2023-04-26T06:37:21.982Z,1010.16
2023-04-26T06:38:21.990Z,1010.23
2023-04-26T06:39:21.929Z,1010.21
2023-04-26T06:40:21.921Z,1010.22
2023-04-26T06:41:21.917Z,1010.23
2023-04-26T06:42:21.901Z,1010.24
2023-04-26T06:43:21.910Z,1010.23
2023-04-26T06:44:21.888Z,1010.25
2023-04-26T06:45:21.919Z,1010.19
2023-04-26T06:46:21.961Z,1010.20
2023-04-26T06:47:21.883Z,1010.19
2023-04-26T06:48:21.854Z,1010.24
2023-04-26T06:49:21.824Z,1010.24
2023-04-26T06:50:21.813Z,1010.19
2023-04-26T06:51:21.890Z,1010.21
2023-04-26T06:52:21.831Z,1010.28
2023-04-26T06:53:23.193Z,1010.22
2023-04-26T06:54:21.773Z,1010.23
2023-04-26T06:55:21.768Z,1010.19
2023-04-26T06:56:21.758Z,1010.21
2023-04-26T06:57:21.734Z,1010.28
2023-04-26T06:58:21.750Z,1010.29
2023-04-26T06:59:21.727Z,1010.26
2023-04-26T07:00:21.744Z,1010.30
2023-04-26T07:01:21.719Z,1010.29
2023-04-26T07:02:21.801Z,1010.28
2023-04-26T07:03:21.843Z,1010.23
2023-04-26T07:04:21.797Z,1010.21
2023-04-26T07:05:21.835Z,1010.26
2023-04-26T07:06:21.675Z,1010.32
2023-04-26T07:07:21.634Z,1010.33
2023-04-26T07:08:21.633Z,1010.24
2023-04-26T07:09:21.609Z,1010.31
2023-04-26T07:10:21.609Z,1010.19
2023-04-26T07:11:22.831Z,1010.31
2023-04-26T07:12:21.576Z,1010.35
2023-04-26T07:13:21.629Z,1010.29
2023-04-26T07:14:21.557Z,1010.31
2023-04-26T07:15:21.569Z,1010.35
2023-04-26T07:16:21.638Z,1010.36
2023-04-26T07:17:21.523Z,1010.36
2023-04-26T07:18:21.541Z,1010.38
2023-04-26T07:19:21.707Z,1010.35
2023-04-26T07:20:21.491Z,1010.35
2023-04-26T07:21:21.497Z,1010.38
2023-04-26T07:22:21.499Z,1010.34
2023-04-26T07:23:21.498Z,1010.36
2023-04-26T07:24:21.452Z,1010.34
2023-04-26T07:25:21.437Z,1010.38
2023-04-26T07:26:21.425Z,1010.39
2023-04-26T07:27:21.414Z,1010.29
2023-04-26T07:28:21.419Z,1010.31
2023-04-26T07:29:21.402Z,1010.35
2023-04-26T07:30:21.385Z,1010.37
2023-04-26T07:31:21.378Z,1010.31
2023-04-26T07:32:21.369Z,1010.35
2023-04-26T07:33:21.614Z,1010.38
2023-04-26T07:34:21.341Z,1010.33
2023-04-26T07:35:21.371Z,1010.40
2023-04-26T07:36:23.079Z,1010.41
2023-04-26T07:37:21.309Z,1010.41
2023-04-26T07:38:21.341Z,1010.40
2023-04-26T07:39:21.287Z,1010.43
2023-04-26T07:40:21.276Z,1010.40
2023-04-26T07:41:21.280Z,1010.41
2023-04-26T07:42:21.261Z,1010.45
2023-04-26T07:43:21.284Z,1010.50
2023-04-26T07:44:21.245Z,1010.44
2023-04-26T07:45:21.271Z,1010.47
2023-04-26T07:46:21.320Z,1010.44
2023-04-26T07:47:21.224Z,1010.44
2023-04-26T07:48:21.255Z,1010.44
2023-04-26T07:49:21.201Z,1010.46
2023-04-26T07:50:21.166Z,1010.41
2023-04-26T07:51:21.184Z,1010.52
2023-04-26T07:52:21.147Z,1010.40
2023-04-26T07:53:21.152Z,1010.46
2023-04-26T07:54:21.120Z,1010.47
2023-04-26T07:55:21.106Z,1010.53
2023-04-26T07:56:21.103Z,1010.50
2023-04-26T07:57:21.108Z,1010.47
2023-04-26T07:58:21.110Z,1010.51
2023-04-26T07:59:21.067Z,1010.54
2023-04-26T08:00:21.056Z,1010.50
2023-04-26T08:01:21.044Z,1010.50
2023-04-26T08:02:25.078Z,1010.51
2023-04-26T08:03:22.227Z,1010.55
2023-04-26T08:04:21.124Z,1010.52
2023-04-26T08:05:21.191Z,1010.49
2023-04-26T08:06:21.046Z,1010.44
2023-04-26T08:07:21.087Z,1010.49
2023-04-26T08:08:21.009Z,1010.66
2023-04-26T08:09:20.960Z,1010.59
2023-04-26T08:10:20.951Z,1010.61
2023-04-26T08:11:20.988Z,1010.58
2023-04-26T08:12:20.937Z,1010.50
2023-04-26T08:13:20.928Z,1010.54
2023-04-26T08:14:20.916Z,1010.57
2023-04-26T08:15:20.890Z,1010.52
2023-04-26T08:16:20.921Z,1010.47
2023-04-26T08:17:20.882Z,1010.59
2023-04-26T08:18:20.914Z,1010.56
2023-04-26T08:19:20.849Z,1010.60
2023-04-26T08:20:20.894Z,1010.60
2023-04-26T08:21:20.827Z,1010.58
2023-04-26T08:22:20.872Z,1010.58
2023-04-26T08:23:20.843Z,1010.55
2023-04-26T08:24:20.799Z,1010.62
2023-04-26T08:25:20.786Z,1010.59
2023-04-26T08:26:20.773Z,1010.66
2023-04-26T08:27:20.764Z,1010.70
2023-04-26T08:28:20.789Z,1010.65
2023-04-26T08:29:20.755Z,1010.69
2023-04-26T08:30:20.750Z,1010.66
2023-04-26T08:31:20.753Z,1010.64
2023-04-26T08:32:20.729Z,1010.67
2023-04-26T08:33:20.743Z,1010.62
2023-04-26T08:34:20.686Z,1010.66
2023-04-26T08:35:20.676Z,1010.61
2023-04-26T08:36:20.671Z,1010.55
2023-04-26T08:37:20.655Z,1010.66
2023-04-26T08:38:20.696Z,1010.66
2023-04-26T08:39:20.659Z,1010.73
2023-04-26T08:40:20.621Z,1010.73
2023-04-26T08:41:20.611Z,1010.68
2023-04-26T08:42:20.651Z,1010.69
2023-04-26T08:43:20.614Z,1010.71
2023-04-26T08:44:20.588Z,1010.73
2023-04-26T08:45:20.611Z,1010.77
2023-04-26T08:46:20.577Z,1010.77
2023-04-26T08:47:20.547Z,1010.76
2023-04-26T08:48:20.573Z,1010.73
2023-04-26T08:49:20.528Z,1010.70
2023-04-26T08:50:20.518Z,1010.73
2023-04-26T08:51:20.505Z,1010.70
2023-04-26T08:52:20.505Z,1010.67
2023-04-26T08:53:20.505Z,1010.73
2023-04-26T08:54:20.477Z,1010.79
2023-04-26T08:55:20.777Z,1010.71
2023-04-26T08:56:20.453Z,1010.73
2023-04-26T08:57:20.441Z,1010.73
2023-04-26T08:58:20.459Z,1010.67
2023-04-26T08:59:20.435Z,1010.75
2023-04-26T09:00:20.434Z,1010.71
2023-04-26T09:01:20.435Z,1010.50
2023-04-26T09:02:20.505Z,1010.66
2023-04-26T09:03:20.468Z,1010.59
2023-04-26T09:04:20.754Z,1010.67
2023-04-26T09:05:20.352Z,1010.69
2023-04-26T09:06:20.348Z,1010.72
2023-04-26T09:07:20.332Z,1010.66
2023-04-26T09:08:20.341Z,1010.69
2023-04-26T09:09:20.321Z,1010.74
2023-04-26T09:10:20.324Z,1010.73
2023-04-26T09:11:20.329Z,1010.67
2023-04-26T09:12:20.287Z,1010.64
2023-04-26T09:13:20.314Z,1010.64
2023-04-26T09:14:20.257Z,1010.61
2023-04-26T09:15:20.269Z,1010.69
2023-04-26T09:16:20.315Z,1010.69
2023-04-26T09:17:20.243Z,1010.65
2023-04-26T09:18:20.264Z,1010.72
2023-04-26T09:19:20.204Z,1010.67
2023-04-26T09:20:20.272Z,1010.68
2023-04-26T09:21:20.184Z,1010.69
2023-04-26T09:22:20.177Z,1010.70
2023-04-26T09:23:20.219Z,1010.66
2023-04-26T09:24:20.197Z,1010.76
2023-04-26T09:25:20.139Z,1010.70
2023-04-26T09:26:20.146Z,1010.68
2023-04-26T09:27:20.150Z,1010.64
2023-04-26T09:28:20.165Z,1010.60
2023-04-26T09:29:20.100Z,1010.68
2023-04-26T09:30:20.111Z,1010.70
2023-04-26T09:31:20.088Z,1010.68
2023-04-26T09:32:20.065Z,1010.75
2023-04-26T09:33:20.129Z,1010.75
2023-04-26T09:34:20.048Z,1010.69
2023-04-26T09:35:20.036Z,1010.67
2023-04-26T09:36:20.029Z,1010.77
2023-04-26T09:37:20.018Z,1010.76
2023-04-26T09:38:20.022Z,1010.71
2023-04-26T09:39:19.993Z,1010.73
2023-04-26T09:40:19.977Z,1010.73
2023-04-26T09:41:19.966Z,1010.70
2023-04-26T09:42:19.959Z,1010.71
2023-04-26T09:43:19.983Z,1010.80
2023-04-26T09:44:19.932Z,1010.79
2023-04-26T09:45:19.935Z,1010.82
2023-04-26T09:46:19.930Z,1010.77
2023-04-26T09:47:20.033Z,1010.73
2023-04-26T09:48:19.892Z,1010.82
2023-04-26T09:49:19.886Z,1010.87
2023-04-26T09:50:19.867Z,1010.88
2023-04-26T09:51:19.858Z,1010.84
2023-04-26T09:52:19.924Z,1010.81
2023-04-26T09:53:19.836Z,1010.79
2023-04-26T09:54:19.825Z,1010.77
2023-04-26T09:55:34.075Z,1010.78
2023-04-26T09:56:20.806Z,1010.67
2023-04-26T09:57:19.803Z,1010.74
2023-04-26T09:58:19.778Z,1010.64
2023-04-26T09:59:19.874Z,1010.71
2023-04-26T10:00:19.755Z,1010.68
2023-04-26T10:01:19.804Z,1010.57
2023-04-26T10:02:19.805Z,1010.63
2023-04-26T10:03:19.930Z,1010.68
2023-04-26T10:04:19.818Z,1010.55
2023-04-26T10:05:19.712Z,1010.65
2023-04-26T10:06:19.707Z,1010.66
2023-04-26T10:07:19.689Z,1010.62
2023-04-26T10:08:19.697Z,1010.72
2023-04-26T10:09:19.663Z,1010.71
2023-04-26T10:10:19.654Z,1010.71
2023-04-26T10:11:19.651Z,1010.73
2023-04-26T10:12:19.632Z,1010.67
2023-04-26T10:13:19.648Z,1010.65
2023-04-26T10:14:19.609Z,1010.70
2023-04-26T10:15:19.628Z,1010.69
2023-04-26T10:16:19.618Z,1010.71
2023-04-26T10:17:19.593Z,1010.80
2023-04-26T10:18:19.572Z,1010.81
2023-04-26T10:19:19.565Z,1010.82
2023-04-26T10:20:19.543Z,1010.66
2023-04-26T10:21:19.533Z,1010.68
2023-04-26T10:22:19.549Z,1010.72
2023-04-26T10:23:19.517Z,1010.67
2023-04-26T10:24:19.510Z,1010.64
2023-04-26T10:25:19.497Z,1010.68
2023-04-26T10:26:19.484Z,1010.60
2023-04-26T10:27:19.496Z,1010.63
2023-04-26T10:28:19.463Z,1010.65
2023-04-26T10:29:19.449Z,1010.65
2023-04-26T10:30:19.442Z,1010.65
2023-04-26T10:31:19.488Z,1010.65
2023-04-26T10:32:19.460Z,1010.66
2023-04-26T10:33:19.485Z,1010.62
2023-04-26T10:34:19.391Z,1010.64
2023-04-26T10:35:19.388Z,1010.68
2023-04-26T10:36:19.374Z,1010.78
2023-04-26T10:37:19.378Z,1010.77
2023-04-26T10:38:19.405Z,1010.70
2023-04-26T10:39:19.343Z,1010.78
2023-04-26T10:40:19.337Z,1010.77
2023-04-26T10:41:19.329Z,1010.80
2023-04-26T10:42:19.349Z,1010.85
2023-04-26T10:43:19.330Z,1010.77
2023-04-26T10:44:19.301Z,1010.80
2023-04-26T10:45:26.931Z,1010.79
2023-04-26T10:46:19.357Z,1010.71
2023-04-26T10:47:19.424Z,1010.73
2023-04-26T10:48:19.256Z,1010.81
2023-04-26T10:49:19.237Z,1010.84
2023-04-26T10:50:19.223Z,1010.79
2023-04-26T10:51:19.211Z,1010.80
2023-04-26T10:52:19.222Z,1010.78
2023-04-26T10:53:19.190Z,1010.84
2023-04-26T10:54:19.176Z,1010.84
2023-04-26T10:55:19.168Z,1010.84
2023-04-26T10:56:19.200Z,1010.84
2023-04-26T10:57:19.166Z,1010.82
2023-04-26T10:58:19.136Z,1010.86
2023-04-26T10:59:36.147Z,1010.83
2023-04-26T11:00:20.123Z,1010.83
2023-04-26T11:01:19.172Z,1010.90
2023-04-26T11:02:19.119Z,1010.86
2023-04-26T11:03:19.281Z,1010.83
2023-04-26T11:04:19.339Z,1010.87
2023-04-26T11:05:19.058Z,1010.86
2023-04-26T11:06:19.048Z,1010.83
2023-04-26T11:07:19.053Z,1010.92
2023-04-26T11:08:19.052Z,1010.84
2023-04-26T11:09:19.018Z,1010.83
2023-04-26T11:10:19.011Z,1010.83
2023-04-26T11:11:18.992Z,1010.86
2023-04-26T11:12:18.986Z,1010.83
2023-04-26T11:13:19.002Z,1010.84
2023-04-26T11:14:18.962Z,1010.89
2023-04-26T11:15:18.979Z,1010.87
2023-04-26T11:16:19.045Z,1010.90
2023-04-26T11:17:18.942Z,1010.86
2023-04-26T11:18:18.937Z,1010.94
2023-04-26T11:19:18.969Z,1010.81
2023-04-26T11:20:18.908Z,1010.82
2023-04-26T11:21:18.929Z,1010.82
2023-04-26T11:22:18.903Z,1010.82
2023-04-26T11:23:18.878Z,1010.84
2023-04-26T11:24:18.855Z,1010.90
2023-04-26T11:25:18.848Z,1010.91
2023-04-26T11:26:18.831Z,1010.87
2023-04-26T11:27:18.945Z,1010.82
2023-04-26T11:28:18.817Z,1010.90
2023-04-26T11:29:18.813Z,1010.88
2023-04-26T11:30:18.800Z,1010.85
2023-04-26T11:31:18.852Z,1010.82
2023-04-26T11:32:18.791Z,1010.86
2023-04-26T11:33:18.793Z,1010.84
2023-04-26T11:34:18.750Z,1010.80
2023-04-26T11:35:18.751Z,1010.78
2023-04-26T11:36:18.763Z,1010.83
2023-04-26T11:37:18.750Z,1010.88
2023-04-26T11:38:18.734Z,1010.91
2023-04-26T11:39:18.692Z,1010.86
2023-04-26T11:40:18.736Z,1010.78
2023-04-26T11:41:18.683Z,1010.82
2023-04-26T11:42:18.686Z,1010.81
2023-04-26T11:43:18.701Z,1010.83
2023-04-26T11:44:18.648Z,1010.81
2023-04-26T11:45:18.636Z,1010.84
2023-04-26T11:46:18.647Z,1010.89
2023-04-26T11:47:18.604Z,1010.84
2023-04-26T11:48:18.638Z,1010.90
2023-04-26T11:49:18.584Z,1010.84
2023-04-26T11:50:18.591Z,1010.88
2023-04-26T11:51:18.624Z,1010.93
2023-04-26T11:52:18.549Z,1010.93
2023-04-26T11:53:18.555Z,1010.92
2023-04-26T11:54:18.532Z,1010.94
2023-04-26T11:55:18.526Z,1011.00
2023-04-26T11:56:18.511Z,1010.95
2023-04-26T11:57:18.554Z,1010.99
2023-04-26T11:58:18.542Z,1011.01
2023-04-26T11:59:18.490Z,1011.00
2023-04-26T12:00:18.461Z,1011.03
2023-04-26T12:01:18.456Z,1011.01
2023-04-26T12:02:18.567Z,1010.98
2023-04-26T12:03:18.694Z,1011.00
2023-04-26T12:04:18.614Z,1010.99
2023-04-26T12:05:18.440Z,1011.00
2023-04-26T12:06:18.415Z,1010.97